Terminal Aerodrome Forecast
Issued by NWS Spokane, WA

Home | Current Version | Previous Version | Text Only | Print | Product List | Glossary On
Versions: 1 2 3 4 5 6 7 8 9 10 11 12 13 14 15 16 17 18 19
000
FTUS46 KOTX 171137
TAFLWS
TAF
KLWS 171137Z 1712/1812 03005KT P6SM SCT070 BKN250
     FM171600 12009KT P6SM OVC100
     FM172100 16005KT P6SM OVC150
     FM180200 15006KT P6SM OVC070
     FM180600 12012G20KT P6SM -FZRA OVC040=

USA.gov is the U.S. government's official web portal to all federal, state and local government web resources and services.